sensor_id;sensor_type;location;lat;lon;timestamp;temperature;humidity
77218;DHT22;66214;51.302;17.068;2024-02-15T00:01:36;8.18;83.83
77218;DHT22;66214;51.302;17.068;2024-02-15T00:04:04;8.16;83.85
77218;DHT22;66214;51.302;17.068;2024-02-15T00:06:34;8.17;83.71
77218;DHT22;66214;51.302;17.068;2024-02-15T00:09:03;8.17;83.56
77218;DHT22;66214;51.302;17.068;2024-02-15T00:11:36;8.16;83.42
77218;DHT22;66214;51.302;17.068;2024-02-15T00:14:08;8.16;83.36
77218;DHT22;66214;51.302;17.068;2024-02-15T00:16:39;8.19;83.48
77218;DHT22;66214;51.302;17.068;2024-02-15T00:19:08;8.23;83.59
77218;DHT22;66214;51.302;17.068;2024-02-15T00:21:36;8.28;83.52
77218;DHT22;66214;51.302;17.068;2024-02-15T00:24:05;8.32;83.26
77218;DHT22;66214;51.302;17.068;2024-02-15T00:26:35;8.36;83.03
77218;DHT22;66214;51.302;17.068;2024-02-15T00:29:04;8.39;82.81
77218;DHT22;66214;51.302;17.068;2024-02-15T00:31:33;8.39;82.59
77218;DHT22;66214;51.302;17.068;2024-02-15T00:34:04;8.39;82.73
77218;DHT22;66214;51.302;17.068;2024-02-15T00:36:34;8.39;82.88
77218;DHT22;66214;51.302;17.068;2024-02-15T00:41:57;8.40;83.04
77218;DHT22;66214;51.302;17.068;2024-02-15T00:44:29;8.42;82.77
77218;DHT22;66214;51.302;17.068;2024-02-15T00:46:58;8.42;82.56
77218;DHT22;66214;51.302;17.068;2024-02-15T00:49:27;8.42;82.37
77218;DHT22;66214;51.302;17.068;2024-02-15T00:58:15;8.49;82.78
77218;DHT22;66214;51.302;17.068;2024-02-15T01:00:49;8.51;82.72
77218;DHT22;66214;51.302;17.068;2024-02-15T01:03:17;8.52;82.49
77218;DHT22;66214;51.302;17.068;2024-02-15T01:05:48;8.51;82.35
77218;DHT22;66214;51.302;17.068;2024-02-15T01:08:18;8.53;82.18
77218;DHT22;66214;51.302;17.068;2024-02-15T01:10:50;8.54;82.15
77218;DHT22;66214;51.302;17.068;2024-02-15T01:16:49;8.64;82.71
77218;DHT22;66214;51.302;17.068;2024-02-15T01:19:18;8.66;82.54
77218;DHT22;66214;51.302;17.068;2024-02-15T01:21:49;8.66;82.26
77218;DHT22;66214;51.302;17.068;2024-02-15T01:24:20;8.64;82.05
77218;DHT22;66214;51.302;17.068;2024-02-15T01:26:49;8.63;81.98
77218;DHT22;66214;51.302;17.068;2024-02-15T01:29:18;8.62;82.14
77218;DHT22;66214;51.302;17.068;2024-02-15T01:31:50;8.63;82.35
77218;DHT22;66214;51.302;17.068;2024-02-15T01:34:20;8.63;82.54
77218;DHT22;66214;51.302;17.068;2024-02-15T01:36:53;8.61;82.59
77218;DHT22;66214;51.302;17.068;2024-02-15T01:39:21;8.62;82.48
77218;DHT22;66214;51.302;17.068;2024-02-15T01:41:50;8.61;82.28
77218;DHT22;66214;51.302;17.068;2024-02-15T01:44:19;8.61;82.07
77218;DHT22;66214;51.302;17.068;2024-02-15T01:46:48;8.60;81.96
77218;DHT22;66214;51.302;17.068;2024-02-15T01:49:42;8.59;81.97
77218;DHT22;66214;51.302;17.068;2024-02-15T01:52:10;8.59;82.18
77218;DHT22;66214;51.302;17.068;2024-02-15T01:54:42;8.60;82.42
77218;DHT22;66214;51.302;17.068;2024-02-15T01:57:13;8.61;82.60
77218;DHT22;66214;51.302;17.068;2024-02-15T01:59:42;8.61;82.47
77218;DHT22;66214;51.302;17.068;2024-02-15T02:02:10;8.61;82.31
77218;DHT22;66214;51.302;17.068;2024-02-15T02:04:43;8.60;82.19
77218;DHT22;66214;51.302;17.068;2024-02-15T02:07:13;8.59;82.03
77218;DHT22;66214;51.302;17.068;2024-02-15T02:09:43;8.60;81.97
77218;DHT22;66214;51.302;17.068;2024-02-15T02:12:13;8.59;82.15
77218;DHT22;66214;51.302;17.068;2024-02-15T02:14:42;8.61;82.45
77218;DHT22;66214;51.302;17.068;2024-02-15T02:20:27;8.66;82.96
77218;DHT22;66214;51.302;17.068;2024-02-15T02:23:20;8.68;82.76
77218;DHT22;66214;51.302;17.068;2024-02-15T02:25:55;8.69;82.46
77218;DHT22;66214;51.302;17.068;2024-02-15T02:28:28;8.68;82.26
77218;DHT22;66214;51.302;17.068;2024-02-15T02:30:56;8.66;82.05
77218;DHT22;66214;51.302;17.068;2024-02-15T02:33:25;8.64;81.99
77218;DHT22;66214;51.302;17.068;2024-02-15T02:35:58;8.62;82.25
77218;DHT22;66214;51.302;17.068;2024-02-15T02:38:28;8.60;82.53
77218;DHT22;66214;51.302;17.068;2024-02-15T02:40:58;8.58;82.68
77218;DHT22;66214;51.302;17.068;2024-02-15T02:43:32;8.55;82.60
77218;DHT22;66214;51.302;17.068;2024-02-15T02:46:03;8.52;82.51
77218;DHT22;66214;51.302;17.068;2024-02-15T02:48:35;8.49;82.45
77218;DHT22;66214;51.302;17.068;2024-02-15T02:51:06;8.48;82.57
77218;DHT22;66214;51.302;17.068;2024-02-15T02:53:36;8.47;82.79
77218;DHT22;66214;51.302;17.068;2024-02-15T02:59:34;8.47;83.26
77218;DHT22;66214;51.302;17.068;2024-02-15T03:02:05;8.44;83.09
77218;DHT22;66214;51.302;17.068;2024-02-15T03:04:36;8.43;82.88
77218;DHT22;66214;51.302;17.068;2024-02-15T03:07:08;8.40;82.75
77218;DHT22;66214;51.302;17.068;2024-02-15T03:09:37;8.38;82.65
77218;DHT22;66214;51.302;17.068;2024-02-15T03:12:08;8.38;82.83
77218;DHT22;66214;51.302;17.068;2024-02-15T03:14:38;8.39;83.06
77218;DHT22;66214;51.302;17.068;2024-02-15T03:17:10;8.40;83.23
77218;DHT22;66214;51.302;17.068;2024-02-15T03:19:41;8.41;83.36
77218;DHT22;66214;51.302;17.068;2024-02-15T03:22:10;8.40;83.29
77218;DHT22;66214;51.302;17.068;2024-02-15T03:24:41;8.38;83.13
77218;DHT22;66214;51.302;17.068;2024-02-15T03:27:10;8.35;82.98
77218;DHT22;66214;51.302;17.068;2024-02-15T03:29:40;8.32;82.98
77218;DHT22;66214;51.302;17.068;2024-02-15T03:32:13;8.32;83.19
77218;DHT22;66214;51.302;17.068;2024-02-15T03:34:42;8.33;83.40
77218;DHT22;66214;51.302;17.068;2024-02-15T03:40:09;8.33;83.39
77218;DHT22;66214;51.302;17.068;2024-02-15T03:43:03;8.33;83.18
77218;DHT22;66214;51.302;17.068;2024-02-15T03:45:34;8.34;83.04
77218;DHT22;66214;51.302;17.068;2024-02-15T03:48:03;8.34;82.95
77218;DHT22;66214;51.302;17.068;2024-02-15T03:50:33;8.35;83.15
77218;DHT22;66214;51.302;17.068;2024-02-15T03:53:01;8.36;83.37
77218;DHT22;66214;51.302;17.068;2024-02-15T03:55:30;8.39;83.58
77218;DHT22;66214;51.302;17.068;2024-02-15T03:57:58;8.41;83.62
77218;DHT22;66214;51.302;17.068;2024-02-15T04:00:27;8.44;83.48
77218;DHT22;66214;51.302;17.068;2024-02-15T04:02:56;8.45;83.25
77218;DHT22;66214;51.302;17.068;2024-02-15T04:05:25;8.45;83.05
77218;DHT22;66214;51.302;17.068;2024-02-15T04:07:53;8.45;82.99
77218;DHT22;66214;51.302;17.068;2024-02-15T04:10:22;8.48;83.11
77218;DHT22;66214;51.302;17.068;2024-02-15T04:12:51;8.49;83.28
77218;DHT22;66214;51.302;17.068;2024-02-15T04:15:22;8.52;83.41
77218;DHT22;66214;51.302;17.068;2024-02-15T04:17:50;8.51;83.42
77218;DHT22;66214;51.302;17.068;2024-02-15T04:20:24;8.53;83.31
77218;DHT22;66214;51.302;17.068;2024-02-15T04:22:53;8.51;83.16
77218;DHT22;66214;51.302;17.068;2024-02-15T04:25:22;8.50;83.07
77218;DHT22;66214;51.302;17.068;2024-02-15T04:27:55;8.49;83.00
77218;DHT22;66214;51.302;17.068;2024-02-15T04:30:27;8.48;83.22
77218;DHT22;66214;51.302;17.068;2024-02-15T04:32:55;8.51;83.42
77218;DHT22;66214;51.302;17.068;2024-02-15T04:35:24;8.53;83.62
77218;DHT22;66214;51.302;17.068;2024-02-15T04:37:55;8.54;83.63
77218;DHT22;66214;51.302;17.068;2024-02-15T04:40:24;8.55;83.49
77218;DHT22;66214;51.302;17.068;2024-02-15T04:42:53;8.56;83.28
77218;DHT22;66214;51.302;17.068;2024-02-15T04:45:23;8.57;83.07
77218;DHT22;66214;51.302;17.068;2024-02-15T04:47:52;8.57;82.99
77218;DHT22;66214;51.302;17.068;2024-02-15T04:50:23;8.58;83.14
77218;DHT22;66214;51.302;17.068;2024-02-15T04:52:53;8.62;83.34
77218;DHT22;66214;51.302;17.068;2024-02-15T04:55:22;8.64;83.42
77218;DHT22;66214;51.302;17.068;2024-02-15T04:57:50;8.66;83.27
77218;DHT22;66214;51.302;17.068;2024-02-15T05:03:50;8.62;82.97
77218;DHT22;66214;51.302;17.068;2024-02-15T05:06:19;8.64;82.77
77218;DHT22;66214;51.302;17.068;2024-02-15T05:08:48;8.65;83.00
77218;DHT22;66214;51.302;17.068;2024-02-15T05:11:17;8.66;83.20
77218;DHT22;66214;51.302;17.068;2024-02-15T05:13:50;8.67;83.37
77218;DHT22;66214;51.302;17.068;2024-02-15T05:16:18;8.69;83.43
77218;DHT22;66214;51.302;17.068;2024-02-15T05:18:48;8.70;83.28
77218;DHT22;66214;51.302;17.068;2024-02-15T05:21:17;8.70;83.08
77218;DHT22;66214;51.302;17.068;2024-02-15T05:27:13;8.69;82.91
77218;DHT22;66214;51.302;17.068;2024-02-15T05:29:42;8.69;82.87
77218;DHT22;66214;51.302;17.068;2024-02-15T05:32:11;8.70;83.00
77218;DHT22;66214;51.302;17.068;2024-02-15T05:34:41;8.70;83.19
77218;DHT22;66214;51.302;17.068;2024-02-15T05:37:09;8.70;83.38
77218;DHT22;66214;51.302;17.068;2024-02-15T05:39:39;8.69;83.43
77218;DHT22;66214;51.302;17.068;2024-02-15T05:42:07;8.69;83.33
77218;DHT22;66214;51.302;17.068;2024-02-15T05:44:38;8.67;83.17
77218;DHT22;66214;51.302;17.068;2024-02-15T05:47:06;8.65;83.07
77218;DHT22;66214;51.302;17.068;2024-02-15T05:49:34;8.63;82.91
77218;DHT22;66214;51.302;17.068;2024-02-15T05:52:03;8.62;82.85
77218;DHT22;66214;51.302;17.068;2024-02-15T05:54:32;8.63;83.04
77218;DHT22;66214;51.302;17.068;2024-02-15T05:57:00;8.62;83.25
77218;DHT22;66214;51.302;17.068;2024-02-15T05:59:29;8.62;83.47
77218;DHT22;66214;51.302;17.068;2024-02-15T06:01:57;8.62;83.56
77218;DHT22;66214;51.302;17.068;2024-02-15T06:04:25;8.60;83.48
77218;DHT22;66214;51.302;17.068;2024-02-15T06:06:54;8.60;83.31
77218;DHT22;66214;51.302;17.068;2024-02-15T06:09:27;8.59;83.17
77218;DHT22;66214;51.302;17.068;2024-02-15T06:11:58;8.56;83.16
77218;DHT22;66214;51.302;17.068;2024-02-15T06:14:26;8.59;83.36
77218;DHT22;66214;51.302;17.068;2024-02-15T06:16:54;8.61;83.57
77218;DHT22;66214;51.302;17.068;2024-02-15T06:19:24;8.64;83.76
77218;DHT22;66214;51.302;17.068;2024-02-15T06:21:52;8.65;83.82
77218;DHT22;66214;51.302;17.068;2024-02-15T06:24:20;8.69;83.68
77218;DHT22;66214;51.302;17.068;2024-02-15T06:26:49;8.69;83.45
77218;DHT22;66214;51.302;17.068;2024-02-15T06:32:58;8.70;83.40
77218;DHT22;66214;51.302;17.068;2024-02-15T06:35:44;8.73;83.56
77218;DHT22;66214;51.302;17.068;2024-02-15T06:38:31;8.75;83.67
77218;DHT22;66214;51.302;17.068;2024-02-15T06:41:17;8.76;83.82
77218;DHT22;66214;51.302;17.068;2024-02-15T06:43:45;8.77;83.86
77218;DHT22;66214;51.302;17.068;2024-02-15T06:46:12;8.76;83.73
77218;DHT22;66214;51.302;17.068;2024-02-15T06:48:43;8.74;83.60
77218;DHT22;66214;51.302;17.068;2024-02-15T06:51:13;8.73;83.50
77218;DHT22;66214;51.302;17.068;2024-02-15T06:53:42;8.73;83.51
77218;DHT22;66214;51.302;17.068;2024-02-15T08:03:47;9.67;82.63
77218;DHT22;66214;51.302;17.068;2024-02-15T08:06:16;9.67;82.10
77218;DHT22;66214;51.302;17.068;2024-02-15T08:08:48;9.66;81.89
77218;DHT22;66214;51.302;17.068;2024-02-15T08:11:19;9.65;81.67
77218;DHT22;66214;51.302;17.068;2024-02-15T08:13:49;9.65;81.53
77218;DHT22;66214;51.302;17.068;2024-02-15T08:16:23;9.66;81.78
77218;DHT22;66214;51.302;17.068;2024-02-15T08:18:53;9.69;81.93
77218;DHT22;66214;51.302;17.068;2024-02-15T08:21:26;9.74;82.02
77218;DHT22;66214;51.302;17.068;2024-02-15T08:24:00;9.76;81.76
77218;DHT22;66214;51.302;17.068;2024-02-15T08:26:39;9.79;81.60
77218;DHT22;66214;51.302;17.068;2024-02-15T08:29:10;9.84;81.40
77218;DHT22;66214;51.302;17.068;2024-02-15T08:31:41;9.91;81.25
77218;DHT22;66214;51.302;17.068;2024-02-15T08:34:10;9.98;81.50
77218;DHT22;66214;51.302;17.068;2024-02-15T08:36:44;10.07;81.72
77218;DHT22;66214;51.302;17.068;2024-02-15T08:39:12;10.15;81.64
77218;DHT22;66214;51.302;17.068;2024-02-15T08:41:44;10.18;81.03
77218;DHT22;66214;51.302;17.068;2024-02-15T08:44:14;10.18;80.58
77218;DHT22;66214;51.302;17.068;2024-02-15T08:46:44;10.18;80.41
77218;DHT22;66214;51.302;17.068;2024-02-15T08:49:13;10.19;80.39
77218;DHT22;66214;51.302;17.068;2024-02-15T08:51:41;10.23;80.66
77218;DHT22;66214;51.302;17.068;2024-02-15T08:54:11;10.30;80.62
77218;DHT22;66214;51.302;17.068;2024-02-15T08:56:40;10.34;80.32
77218;DHT22;66214;51.302;17.068;2024-02-15T08:59:09;10.37;80.18
77218;DHT22;66214;51.302;17.068;2024-02-15T09:01:37;10.43;80.12
77218;DHT22;66214;51.302;17.068;2024-02-15T09:04:07;10.48;79.94
77218;DHT22;66214;51.302;17.068;2024-02-15T09:06:36;10.55;80.08
77218;DHT22;66214;51.302;17.068;2024-02-15T09:09:04;10.61;80.04
77218;DHT22;66214;51.302;17.068;2024-02-15T09:11:33;10.58;79.68
77218;DHT22;66214;51.302;17.068;2024-02-15T09:14:02;10.60;79.73
77218;DHT22;66214;51.302;17.068;2024-02-15T09:16:31;10.65;79.69
77218;DHT22;66214;51.302;17.068;2024-02-15T09:18:59;10.69;79.73
77218;DHT22;66214;51.302;17.068;2024-02-15T09:21:29;10.74;80.06
77218;DHT22;66214;51.302;17.068;2024-02-15T09:23:58;10.82;80.21
77218;DHT22;66214;51.302;17.068;2024-02-15T09:26:26;10.90;80.28
77218;DHT22;66214;51.302;17.068;2024-02-15T09:28:57;10.97;79.92
77218;DHT22;66214;51.302;17.068;2024-02-15T09:31:25;11.04;79.74
77218;DHT22;66214;51.302;17.068;2024-02-15T09:33:54;11.13;79.40
77218;DHT22;66214;51.302;17.068;2024-02-15T09:39:49;11.28;79.58
77218;DHT22;66214;51.302;17.068;2024-02-15T09:42:18;11.36;79.90
77218;DHT22;66214;51.302;17.068;2024-02-15T09:44:46;11.45;79.96
77218;DHT22;66214;51.302;17.068;2024-02-15T09:47:16;11.53;79.62
77218;DHT22;66214;51.302;17.068;2024-02-15T09:49:48;11.59;79.37
77218;DHT22;66214;51.302;17.068;2024-02-15T09:52:18;11.62;78.92
77218;DHT22;66214;51.302;17.068;2024-02-15T09:54:47;11.62;78.68
77218;DHT22;66214;51.302;17.068;2024-02-15T09:57:16;11.62;78.79
77218;DHT22;66214;51.302;17.068;2024-02-15T09:59:46;11.64;78.85
77218;DHT22;66214;51.302;17.068;2024-02-15T10:02:15;11.65;78.85
77218;DHT22;66214;51.302;17.068;2024-02-15T10:04:43;11.69;78.76
77218;DHT22;66214;51.302;17.068;2024-02-15T10:07:15;11.75;78.37
77218;DHT22;66214;51.302;17.068;2024-02-15T10:09:46;11.75;78.13
77218;DHT22;66214;51.302;17.068;2024-02-15T10:12:40;11.74;78.14
77218;DHT22;66214;51.302;17.068;2024-02-15T10:15:08;11.82;78.41
77218;DHT22;66214;51.302;17.068;2024-02-15T10:17:38;11.95;78.59
77218;DHT22;66214;51.302;17.068;2024-02-15T10:20:07;12.12;78.15
77218;DHT22;66214;51.302;17.068;2024-02-15T10:22:38;12.27;77.85
77218;DHT22;66214;51.302;17.068;2024-02-15T10:25:13;12.34;77.54
77218;DHT22;66214;51.302;17.068;2024-02-15T10:27:42;12.36;77.58
77218;DHT22;66214;51.302;17.068;2024-02-15T10:30:16;12.43;77.68
77218;DHT22;66214;51.302;17.068;2024-02-15T10:36:08;12.46;76.83
77218;DHT22;66214;51.302;17.068;2024-02-15T10:38:41;12.42;76.68
77218;DHT22;66214;51.302;17.068;2024-02-15T10:41:09;12.36;76.64
77218;DHT22;66214;51.302;17.068;2024-02-15T10:43:40;12.30;76.88
77218;DHT22;66214;51.302;17.068;2024-02-15T10:46:10;12.18;76.76
77218;DHT22;66214;51.302;17.068;2024-02-15T10:48:41;12.11;76.89
77218;DHT22;66214;51.302;17.068;2024-02-15T10:51:12;12.11;76.87
77218;DHT22;66214;51.302;17.068;2024-02-15T10:53:46;11.98;77.04
77218;DHT22;66214;51.302;17.068;2024-02-15T10:56:34;11.91;77.58
77218;DHT22;66214;51.302;17.068;2024-02-15T10:59:11;11.87;77.93
77218;DHT22;66214;51.302;17.068;2024-02-15T11:04:08;11.86;78.23
77218;DHT22;66214;51.302;17.068;2024-02-15T11:06:42;11.97;78.12
77218;DHT22;66214;51.302;17.068;2024-02-15T11:09:12;12.06;77.99
77218;DHT22;66214;51.302;17.068;2024-02-15T11:11:44;12.17;77.88
77218;DHT22;66214;51.302;17.068;2024-02-15T11:14:27;12.23;77.75
77218;DHT22;66214;51.302;17.068;2024-02-15T11:17:02;12.23;78.12
77218;DHT22;66214;51.302;17.068;2024-02-15T11:19:43;12.24;78.43
77218;DHT22;66214;51.302;17.068;2024-02-15T11:22:15;12.27;78.72
77218;DHT22;66214;51.302;17.068;2024-02-15T11:27:24;12.47;78.42
77218;DHT22;66214;51.302;17.068;2024-02-15T11:29:59;12.50;78.14
77218;DHT22;66214;51.302;17.068;2024-02-15T11:35:26;12.57;78.41
77218;DHT22;66214;51.302;17.068;2024-02-15T11:37:57;12.68;78.56
77218;DHT22;66214;51.302;17.068;2024-02-15T11:40:28;12.73;78.03
77218;DHT22;66214;51.302;17.068;2024-02-15T11:46:16;12.76;77.94
77218;DHT22;66214;51.302;17.068;2024-02-15T11:48:47;12.86;77.92
77218;DHT22;66214;51.302;17.068;2024-02-15T11:51:30;13.02;78.21
77218;DHT22;66214;51.302;17.068;2024-02-15T11:54:11;13.18;78.37
77218;DHT22;66214;51.302;17.068;2024-02-15T11:59:15;13.43;78.05
77218;DHT22;66214;51.302;17.068;2024-02-15T12:01:57;13.56;77.66
77218;DHT22;66214;51.302;17.068;2024-02-15T12:04:46;13.71;77.42
77218;DHT22;66214;51.302;17.068;2024-02-15T12:07:33;13.93;77.13
77218;DHT22;66214;51.302;17.068;2024-02-15T12:10:22;14.17;76.98
77218;DHT22;66214;51.302;17.068;2024-02-15T12:13:09;14.38;76.89
77218;DHT22;66214;51.302;17.068;2024-02-15T12:16:00;14.45;76.85
77218;DHT22;66214;51.302;17.068;2024-02-15T12:18:48;14.49;76.63
77218;DHT22;66214;51.302;17.068;2024-02-15T12:21:23;14.51;76.40
77218;DHT22;66214;51.302;17.068;2024-02-15T12:23:54;14.50;75.88
77218;DHT22;66214;51.302;17.068;2024-02-15T12:26:24;14.37;75.75
77218;DHT22;66214;51.302;17.068;2024-02-15T12:28:53;14.20;75.86
77218;DHT22;66214;51.302;17.068;2024-02-15T12:31:26;14.09;76.35
77218;DHT22;66214;51.302;17.068;2024-02-15T12:33:59;14.04;76.53
77218;DHT22;66214;51.302;17.068;2024-02-15T12:36:35;13.97;76.46
77218;DHT22;66214;51.302;17.068;2024-02-15T12:39:06;13.95;76.29
77218;DHT22;66214;51.302;17.068;2024-02-15T12:41:48;13.90;76.24
77218;DHT22;66214;51.302;17.068;2024-02-15T12:44:19;13.93;76.18
77218;DHT22;66214;51.302;17.068;2024-02-15T12:46:54;14.00;76.23
77218;DHT22;66214;51.302;17.068;2024-02-15T12:49:29;14.04;76.37
77218;DHT22;66214;51.302;17.068;2024-02-15T12:55:16;14.24;76.50
77218;DHT22;66214;51.302;17.068;2024-02-15T12:57:52;14.34;76.29
77218;DHT22;66214;51.302;17.068;2024-02-15T13:00:25;14.41;76.11
77218;DHT22;66214;51.302;17.068;2024-02-15T13:03:01;14.46;75.74
77218;DHT22;66214;51.302;17.068;2024-02-15T13:05:38;14.45;75.54
77218;DHT22;66214;51.302;17.068;2024-02-15T13:08:07;14.42;75.89
77218;DHT22;66214;51.302;17.068;2024-02-15T13:10:44;14.46;76.10
77218;DHT22;66214;51.302;17.068;2024-02-15T13:13:13;14.52;76.10
77218;DHT22;66214;51.302;17.068;2024-02-15T13:15:42;14.56;75.81
77218;DHT22;66214;51.302;17.068;2024-02-15T13:18:11;14.55;75.55
77218;DHT22;66214;51.302;17.068;2024-02-15T13:20:42;14.57;75.08
77218;DHT22;66214;51.302;17.068;2024-02-15T13:23:12;14.54;75.06
77218;DHT22;66214;51.302;17.068;2024-02-15T13:25:50;14.60;74.89
77218;DHT22;66214;51.302;17.068;2024-02-15T13:28:24;14.67;74.70
77218;DHT22;66214;51.302;17.068;2024-02-15T13:30:55;14.75;74.77
77218;DHT22;66214;51.302;17.068;2024-02-15T13:33:24;14.85;74.92
77218;DHT22;66214;51.302;17.068;2024-02-15T13:35:54;14.96;74.51
77218;DHT22;66214;51.302;17.068;2024-02-15T13:38:22;15.06;74.10
77218;DHT22;66214;51.302;17.068;2024-02-15T13:40:51;15.15;73.91
77218;DHT22;66214;51.302;17.068;2024-02-15T13:43:24;15.30;73.74
77218;DHT22;66214;51.302;17.068;2024-02-15T13:45:53;15.44;73.22
77218;DHT22;66214;51.302;17.068;2024-02-15T13:48:22;15.54;72.77
77218;DHT22;66214;51.302;17.068;2024-02-15T13:50:52;15.44;72.31
77218;DHT22;66214;51.302;17.068;2024-02-15T13:53:23;15.32;72.12
77218;DHT22;66214;51.302;17.068;2024-02-15T13:55:54;15.16;72.18
77218;DHT22;66214;51.302;17.068;2024-02-15T13:58:22;14.96;71.60
77218;DHT22;66214;51.302;17.068;2024-02-15T14:03:48;14.70;72.37
77218;DHT22;66214;51.302;17.068;2024-02-15T14:06:17;14.71;72.42
77218;DHT22;66214;51.302;17.068;2024-02-15T14:08:49;14.71;72.31
77218;DHT22;66214;51.302;17.068;2024-02-15T14:11:19;14.68;72.32
77218;DHT22;66214;51.302;17.068;2024-02-15T14:13:48;14.62;72.07
77218;DHT22;66214;51.302;17.068;2024-02-15T14:16:17;14.54;72.64
77218;DHT22;66214;51.302;17.068;2024-02-15T17:03:48;11.25;77.11
77218;DHT22;66214;51.302;17.068;2024-02-15T17:06:21;11.20;77.05
77218;DHT22;66214;51.302;17.068;2024-02-15T17:08:52;11.12;77.35
77218;DHT22;66214;51.302;17.068;2024-02-15T17:11:24;11.03;77.71
77218;DHT22;66214;51.302;17.068;2024-02-15T17:13:53;10.98;78.17
77218;DHT22;66214;51.302;17.068;2024-02-15T17:16:25;10.94;78.48
77218;DHT22;66214;51.302;17.068;2024-02-15T17:18:56;10.88;78.53
77218;DHT22;66214;51.302;17.068;2024-02-15T17:21:27;10.83;78.51
77218;DHT22;66214;51.302;17.068;2024-02-15T17:23:58;10.80;78.49
77218;DHT22;66214;51.302;17.068;2024-02-15T17:26:28;10.78;78.51
77218;DHT22;66214;51.302;17.068;2024-02-15T17:28:58;10.78;78.58
77218;DHT22;66214;51.302;17.068;2024-02-15T17:31:52;10.80;78.82
77218;DHT22;66214;51.302;17.068;2024-02-15T17:34:21;10.81;79.25
77218;DHT22;66214;51.302;17.068;2024-02-15T17:36:51;10.82;79.62
77218;DHT22;66214;51.302;17.068;2024-02-15T17:39:20;10.84;79.70
77218;DHT22;66214;51.302;17.068;2024-02-15T17:41:48;10.86;79.63
77218;DHT22;66214;51.302;17.068;2024-02-15T17:44:17;10.87;79.57
77218;DHT22;66214;51.302;17.068;2024-02-15T17:46:45;10.89;79.57
77218;DHT22;66214;51.302;17.068;2024-02-15T17:49:17;10.91;79.81
77218;DHT22;66214;51.302;17.068;2024-02-15T17:51:46;10.92;80.13
77218;DHT22;66214;51.302;17.068;2024-02-15T17:54:14;10.94;80.42
77218;DHT22;66214;51.302;17.068;2024-02-15T17:56:43;10.94;80.32
77218;DHT22;66214;51.302;17.068;2024-02-15T18:02:39;10.96;80.26
77218;DHT22;66214;51.302;17.068;2024-02-15T18:05:09;10.96;80.17
77218;DHT22;66214;51.302;17.068;2024-02-15T18:07:40;10.98;80.39
77218;DHT22;66214;51.302;17.068;2024-02-15T18:10:09;10.98;80.60
77218;DHT22;66214;51.302;17.068;2024-02-15T18:12:40;10.98;80.96
77218;DHT22;66214;51.302;17.068;2024-02-15T18:15:11;10.96;81.07
77218;DHT22;66214;51.302;17.068;2024-02-15T18:17:52;10.94;80.98
77218;DHT22;66214;51.302;17.068;2024-02-15T18:20:24;10.91;80.93
77218;DHT22;66214;51.302;17.068;2024-02-15T18:22:54;10.89;80.83
77218;DHT22;66214;51.302;17.068;2024-02-15T18:25:49;10.87;80.75
77218;DHT22;66214;51.302;17.068;2024-02-15T18:28:19;10.86;80.96
77218;DHT22;66214;51.302;17.068;2024-02-15T18:30:48;10.85;81.21
77218;DHT22;66214;51.302;17.068;2024-02-15T18:33:19;10.83;81.40
77218;DHT22;66214;51.302;17.068;2024-02-15T18:35:48;10.83;81.59
77218;DHT22;66214;51.302;17.068;2024-02-15T18:38:16;10.78;81.61
77218;DHT22;66214;51.302;17.068;2024-02-15T18:40:45;10.75;81.49
77218;DHT22;66214;51.302;17.068;2024-02-15T18:43:16;10.72;81.38
77218;DHT22;66214;51.302;17.068;2024-02-15T18:45:46;10.69;81.34
77218;DHT22;66214;51.302;17.068;2024-02-15T18:48:16;10.68;81.48
77218;DHT22;66214;51.302;17.068;2024-02-15T18:50:45;10.67;81.68
77218;DHT22;66214;51.302;17.068;2024-02-15T18:53:15;10.66;81.84
77218;DHT22;66214;51.302;17.068;2024-02-15T18:55:46;10.65;81.96
77218;DHT22;66214;51.302;17.068;2024-02-15T18:58:15;10.63;81.93
77218;DHT22;66214;51.302;17.068;2024-02-15T19:00:46;10.62;81.80
77218;DHT22;66214;51.302;17.068;2024-02-15T19:03:15;10.58;81.66
77218;DHT22;66214;51.302;17.068;2024-02-15T19:05:48;10.55;81.66
77218;DHT22;66214;51.302;17.068;2024-02-15T19:08:17;10.52;81.86
77218;DHT22;66214;51.302;17.068;2024-02-15T19:10:46;10.51;82.22
77218;DHT22;66214;51.302;17.068;2024-02-15T19:13:15;10.50;82.48
77218;DHT22;66214;51.302;17.068;2024-02-15T19:15:47;10.49;82.65
77218;DHT22;66214;51.302;17.068;2024-02-15T19:18:22;10.47;82.61
77218;DHT22;66214;51.302;17.068;2024-02-15T19:20:51;10.46;82.49
77218;DHT22;66214;51.302;17.068;2024-02-15T19:23:20;10.44;82.42
77218;DHT22;66214;51.302;17.068;2024-02-15T19:25:48;10.42;82.36
77218;DHT22;66214;51.302;17.068;2024-02-15T19:28:18;10.42;82.59
77218;DHT22;66214;51.302;17.068;2024-02-15T19:30:47;10.40;82.87
77218;DHT22;66214;51.302;17.068;2024-02-15T19:33:16;10.39;83.09
77218;DHT22;66214;51.302;17.068;2024-02-15T19:35:46;10.37;83.18
77218;DHT22;66214;51.302;17.068;2024-02-15T19:38:15;10.34;83.08
77218;DHT22;66214;51.302;17.068;2024-02-15T19:40:43;10.34;83.03
77218;DHT22;66214;51.302;17.068;2024-02-15T19:43:14;10.33;82.93
77218;DHT22;66214;51.302;17.068;2024-02-15T19:49:15;10.31;83.56
77218;DHT22;66214;51.302;17.068;2024-02-15T19:51:47;10.33;83.71
77218;DHT22;66214;51.302;17.068;2024-02-15T19:54:23;10.32;83.85
77218;DHT22;66214;51.302;17.068;2024-02-15T19:57:08;10.33;83.87
77218;DHT22;66214;51.302;17.068;2024-02-15T19:59:36;10.32;83.73
77218;DHT22;66214;51.302;17.068;2024-02-15T20:02:05;10.32;83.53
77218;DHT22;66214;51.302;17.068;2024-02-15T20:04:34;10.28;83.47
77218;DHT22;66214;51.302;17.068;2024-02-15T20:07:04;10.26;83.65
77218;DHT22;66214;51.302;17.068;2024-02-15T20:09:34;10.23;83.87
77218;DHT22;66214;51.302;17.068;2024-02-15T20:12:02;10.22;83.92
77218;DHT22;66214;51.302;17.068;2024-02-15T20:14:57;10.22;84.01
77218;DHT22;66214;51.302;17.068;2024-02-15T20:17:26;10.21;83.85
77218;DHT22;66214;51.302;17.068;2024-02-15T20:19:55;10.19;83.68
77218;DHT22;66214;51.302;17.068;2024-02-15T20:22:24;10.16;83.52
77218;DHT22;66214;51.302;17.068;2024-02-15T20:24:53;10.14;83.44
77218;DHT22;66214;51.302;17.068;2024-02-15T20:27:29;10.11;83.65
77218;DHT22;66214;51.302;17.068;2024-02-15T20:30:00;10.10;83.93
77218;DHT22;66214;51.302;17.068;2024-02-15T20:32:29;10.08;84.12
77218;DHT22;66214;51.302;17.068;2024-02-15T20:34:58;10.08;84.30
77218;DHT22;66214;51.302;17.068;2024-02-15T20:37:26;10.08;84.31
77218;DHT22;66214;51.302;17.068;2024-02-15T20:39:55;10.07;84.23
77218;DHT22;66214;51.302;17.068;2024-02-15T20:42:23;10.05;84.06
77218;DHT22;66214;51.302;17.068;2024-02-15T20:44:54;10.04;83.83
77218;DHT22;66214;51.302;17.068;2024-02-15T20:47:23;10.01;83.73